Terminal Aerodrome Forecast
Issued by NWS

Home | Current Version | Previous Version | Text Only | Print | Product List | Glossary On
Versions: 1 2 3 4 5 6 7 8 9 10 11 12 13 14
000
FTUS46 KPDT 020500
TAFBDN
TAF
KBDN 020527Z 0206/0306 VRB05KT P6SM SCT120
     FM021800 33006KT P6SM SCT060 BKN100 PROB30 0219/0301 -TSRA
      BKN060CB=

USA.gov is the U.S. government's official web portal to all federal, state and local government web resources and services.